createdAt,value
2022-12-23T00:01:22.333Z,4.35
2022-12-23T00:03:49.116Z,9.68
2022-12-23T00:06:18.269Z,10.30
2022-12-23T00:08:45.280Z,6.28
2022-12-23T00:11:13.543Z,6.53
2022-12-23T00:13:40.116Z,5.93
2022-12-23T00:16:08.560Z,5.68
2022-12-23T00:18:35.912Z,5.73
2022-12-23T00:21:08.567Z,6.95
2022-12-23T00:23:39.026Z,9.57
2022-12-23T00:26:06.197Z,11.07
2022-12-23T00:28:33.192Z,8.55
2022-12-23T00:31:02.627Z,9.43
2022-12-23T00:33:31.551Z,10.48
2022-12-23T00:35:58.438Z,7.88
2022-12-23T00:38:25.671Z,12.18
2022-12-23T00:40:53.448Z,7.05
2022-12-23T00:43:20.056Z,8.73
2022-12-23T00:45:46.622Z,7.22
2022-12-23T00:48:13.433Z,7.78
2022-12-23T00:50:40.840Z,12.02
2022-12-23T00:53:07.557Z,5.82
2022-12-23T00:55:34.074Z,6.57
2022-12-23T00:58:01.890Z,6.70
2022-12-23T01:00:29.053Z,5.55
2022-12-23T01:02:55.630Z,5.88
2022-12-23T01:05:22.383Z,6.45
2022-12-23T01:07:48.955Z,7.63
2022-12-23T01:10:15.474Z,5.07
2022-12-23T01:12:42.047Z,4.63
2022-12-23T01:15:10.660Z,5.68
2022-12-23T01:17:37.404Z,4.22
2022-12-23T01:20:04.671Z,8.47
2022-12-23T01:22:31.164Z,6.55
2022-12-23T01:24:57.711Z,6.22
2022-12-23T01:27:24.194Z,7.10
2022-12-23T01:29:50.702Z,8.90
2022-12-23T01:32:18.713Z,4.53
2022-12-23T01:34:45.275Z,5.40
2022-12-23T01:37:11.782Z,8.18
2022-12-23T01:39:38.414Z,4.38
2022-12-23T01:42:09.712Z,5.22
2022-12-23T01:44:54.904Z,5.57
2022-12-23T01:47:31.874Z,7.38
2022-12-23T01:50:04.987Z,5.97
2022-12-23T01:52:34.893Z,4.50
2022-12-23T01:55:01.517Z,5.80
2022-12-23T01:57:28.956Z,5.37
2022-12-23T01:59:55.566Z,4.20
2022-12-23T02:02:22.265Z,6.10
2022-12-23T02:04:51.351Z,5.60
2022-12-23T02:07:18.866Z,4.78
2022-12-23T02:09:45.345Z,7.70
2022-12-23T02:12:36.211Z,7.57
2022-12-23T02:15:14.492Z,3.25
2022-12-23T02:17:52.217Z,4.65
2022-12-23T02:20:59.059Z,7.60
2022-12-23T02:23:52.359Z,4.63
2022-12-23T02:26:42.519Z,5.57
2022-12-23T02:29:42.392Z,5.53
2022-12-23T02:32:15.776Z,6.25
2022-12-23T02:34:52.344Z,6.55
2022-12-23T02:37:24.078Z,4.83
2022-12-23T02:39:55.725Z,5.93
2022-12-23T02:42:25.960Z,4.57
2022-12-23T02:44:59.418Z,5.10
2022-12-23T02:47:31.791Z,5.50
2022-12-23T02:50:03.601Z,7.23
2022-12-23T02:52:34.436Z,5.07
2022-12-23T02:55:06.578Z,6.18
2022-12-23T02:57:37.036Z,5.63
2022-12-23T03:00:06.339Z,5.88
2022-12-23T03:02:36.809Z,7.03
2022-12-23T03:05:04.114Z,7.03
2022-12-23T03:07:33.389Z,5.68
2022-12-23T03:10:08.366Z,7.45
2022-12-23T03:12:46.355Z,6.65
2022-12-23T03:15:21.586Z,7.47
2022-12-23T03:17:59.138Z,7.75
2022-12-23T03:20:34.606Z,6.35
2022-12-23T03:23:08.012Z,4.75
2022-12-23T03:25:40.530Z,8.90
2022-12-23T03:28:11.616Z,6.30
2022-12-23T03:30:43.125Z,6.53
2022-12-23T03:33:17.062Z,9.40
2022-12-23T03:35:48.939Z,7.82
2022-12-23T03:38:18.446Z,5.28
2022-12-23T03:40:49.224Z,10.53
2022-12-23T03:43:20.880Z,6.88
2022-12-23T03:45:52.409Z,9.70
2022-12-23T03:48:25.115Z,6.80
2022-12-23T03:50:56.564Z,6.60
2022-12-23T03:53:27.572Z,4.83
2022-12-23T03:55:56.665Z,9.70
2022-12-23T03:58:35.053Z,8.20
2022-12-23T04:01:10.183Z,9.27
2022-12-23T04:03:47.156Z,5.45
2022-12-23T04:06:17.717Z,7.03
2022-12-23T04:08:48.323Z,6.93
2022-12-23T04:11:14.979Z,12.95
2022-12-23T04:13:41.551Z,12.43
2022-12-23T04:16:08.307Z,8.60
2022-12-23T04:18:35.017Z,9.53
2022-12-23T04:21:03.112Z,8.20
2022-12-23T04:23:29.584Z,10.52
2022-12-23T04:25:56.115Z,10.27
2022-12-23T04:28:22.545Z,7.53
2022-12-23T04:30:49.049Z,9.50
2022-12-23T04:33:15.573Z,10.13
2022-12-23T04:35:42.103Z,10.07
2022-12-23T04:38:09.940Z,9.02
2022-12-23T04:40:36.540Z,8.60
2022-12-23T04:43:03.045Z,10.30
2022-12-23T04:45:29.644Z,9.43
2022-12-23T04:47:56.107Z,7.80
2022-12-23T04:50:22.752Z,9.48
2022-12-23T04:52:49.343Z,8.02
2022-12-23T04:55:17.218Z,10.43
2022-12-23T04:57:43.682Z,8.75
2022-12-23T05:00:11.278Z,7.30
2022-12-23T05:02:37.930Z,6.95
2022-12-23T05:05:05.117Z,7.22
2022-12-23T05:07:31.797Z,8.70
2022-12-23T05:09:58.296Z,13.10
2022-12-23T05:12:26.131Z,5.93
2022-12-23T05:14:52.867Z,8.63
2022-12-23T05:17:19.358Z,9.90
2022-12-23T05:19:45.954Z,11.17
2022-12-23T05:22:12.513Z,7.20
2022-12-23T05:24:38.969Z,10.00
2022-12-23T05:27:05.583Z,7.78
2022-12-23T05:29:33.420Z,6.97
2022-12-23T05:31:59.946Z,6.67
2022-12-23T05:34:26.615Z,7.60
2022-12-23T05:36:53.109Z,8.43
2022-12-23T05:39:19.574Z,9.25
2022-12-23T05:41:46.125Z,7.57
2022-12-23T05:44:12.633Z,13.57
2022-12-23T05:46:40.543Z,5.72
2022-12-23T05:49:07.031Z,7.63
2022-12-23T05:51:33.671Z,7.78
2022-12-23T05:54:00.191Z,7.25
2022-12-23T05:56:26.747Z,7.10
2022-12-23T05:58:53.489Z,7.53
2022-12-23T06:01:20.007Z,5.75
2022-12-23T06:03:48.141Z,8.63
2022-12-23T06:06:14.773Z,6.00
2022-12-23T06:08:41.282Z,5.90
2022-12-23T06:11:07.947Z,10.52
2022-12-23T06:13:34.506Z,11.65
2022-12-23T06:16:01.134Z,6.25
2022-12-23T06:18:27.644Z,4.53
2022-12-23T06:21:00.180Z,7.00
2022-12-23T06:23:26.657Z,5.15
2022-12-23T06:25:58.812Z,7.07
2022-12-23T06:28:25.555Z,8.27
2022-12-23T06:30:52.795Z,7.63
2022-12-23T06:33:19.267Z,6.83
2022-12-23T06:35:45.777Z,6.50
2022-12-23T06:38:13.795Z,6.60
2022-12-23T06:40:40.470Z,6.38
2022-12-23T06:43:07.043Z,7.88
2022-12-23T06:45:33.523Z,10.30
2022-12-23T06:48:00.012Z,8.95
2022-12-23T06:50:26.546Z,8.18
2022-12-23T06:52:53.033Z,7.80
2022-12-23T06:55:20.886Z,6.03
2022-12-23T06:57:49.128Z,10.13
2022-12-23T07:00:16.632Z,7.55
2022-12-23T07:02:43.252Z,7.88
2022-12-23T07:05:09.776Z,8.95
2022-12-23T07:07:36.412Z,8.60
2022-12-23T07:10:03.274Z,7.37
2022-12-23T07:12:31.075Z,7.40
2022-12-23T07:14:57.644Z,8.25
2022-12-23T07:17:24.130Z,9.90
2022-12-23T07:19:50.963Z,9.02
2022-12-23T07:22:17.460Z,8.43
2022-12-23T07:24:43.979Z,9.93
2022-12-23T07:27:10.754Z,6.57
2022-12-23T07:29:38.556Z,9.65
2022-12-23T07:32:05.404Z,9.27
2022-12-23T07:34:32.041Z,7.90
2022-12-23T07:36:58.533Z,6.20
2022-12-23T07:39:25.089Z,6.88
2022-12-23T07:42:08.894Z,11.77
2022-12-23T07:44:39.376Z,7.53
2022-12-23T07:47:05.861Z,9.40
2022-12-23T07:49:32.417Z,4.78
2022-12-23T07:51:58.930Z,8.20
2022-12-23T07:54:25.396Z,6.47
2022-12-23T07:56:51.922Z,7.88
2022-12-23T07:59:18.423Z,6.40
2022-12-23T08:01:46.427Z,10.20
2022-12-23T08:04:13.020Z,9.48
2022-12-23T08:06:39.551Z,6.93
2022-12-23T08:09:06.043Z,7.93
2022-12-23T08:11:32.528Z,13.73
2022-12-23T08:13:59.075Z,7.97
2022-12-23T08:16:25.686Z,10.48
2022-12-23T08:18:53.650Z,5.38
2022-12-23T08:21:20.220Z,7.68
2022-12-23T08:23:47.582Z,9.63
2022-12-23T08:26:16.942Z,7.22
2022-12-23T08:28:44.253Z,10.55
2022-12-23T08:31:12.980Z,9.65
2022-12-23T08:33:41.884Z,13.73
2022-12-23T08:36:19.092Z,11.63
2022-12-23T08:38:49.399Z,10.20
2022-12-23T08:41:18.679Z,6.03
2022-12-23T08:43:45.365Z,10.13
2022-12-23T08:46:12.117Z,8.45
2022-12-23T08:48:42.501Z,7.80
2022-12-23T08:51:15.061Z,11.57
2022-12-23T08:53:41.523Z,7.00
2022-12-23T08:56:10.610Z,9.00
2022-12-23T08:58:38.060Z,7.32
2022-12-23T09:01:05.941Z,7.83
2022-12-23T09:03:39.666Z,8.38
2022-12-23T09:06:07.725Z,9.02
2022-12-23T09:08:35.978Z,8.57
2022-12-23T09:11:03.526Z,9.25
2022-12-23T09:13:48.100Z,9.20
2022-12-23T09:16:15.358Z,8.50
2022-12-23T09:18:43.272Z,8.20
2022-12-23T09:21:26.767Z,7.25
2022-12-23T09:23:54.999Z,6.78
2022-12-23T09:26:24.563Z,6.70
2022-12-23T09:28:53.426Z,6.13
2022-12-23T09:31:25.218Z,6.95
2022-12-23T09:33:53.881Z,6.28
2022-12-23T09:36:21.267Z,8.77
2022-12-23T09:38:48.207Z,8.53
2022-12-23T09:41:33.419Z,7.20
2022-12-23T09:44:14.967Z,7.25
2022-12-23T09:46:47.625Z,8.63
2022-12-23T09:49:17.490Z,8.77
2022-12-23T09:51:45.641Z,8.60
2022-12-23T09:54:17.917Z,11.10
2022-12-23T09:56:51.178Z,8.80
2022-12-23T09:59:29.110Z,10.43
2022-12-23T10:02:00.767Z,8.55
2022-12-23T10:04:46.857Z,6.57
2022-12-23T10:07:22.707Z,8.02
2022-12-23T10:09:51.218Z,8.40
2022-12-23T10:12:31.641Z,6.65
2022-12-23T10:15:04.230Z,9.77
2022-12-23T10:17:38.821Z,10.03
2022-12-23T10:20:16.701Z,6.40
2022-12-23T10:22:44.905Z,5.93
2022-12-23T10:25:16.917Z,8.25
2022-12-23T10:27:44.876Z,8.40
2022-12-23T10:30:42.606Z,8.43
2022-12-23T10:33:09.721Z,8.20
2022-12-23T10:35:44.180Z,10.10
2022-12-23T10:38:29.004Z,6.40
2022-12-23T10:41:07.120Z,7.60
2022-12-23T10:43:47.143Z,8.10
2022-12-23T10:46:19.658Z,7.75
2022-12-23T10:48:59.940Z,7.45
2022-12-23T10:51:32.129Z,8.77
2022-12-23T10:54:02.107Z,7.97
2022-12-23T10:56:29.394Z,9.00
2022-12-23T10:58:59.816Z,7.53
2022-12-23T11:01:27.844Z,4.80
2022-12-23T11:04:03.168Z,6.45
2022-12-23T11:06:37.263Z,3.80
2022-12-23T11:09:05.875Z,4.67
2022-12-23T11:11:58.217Z,5.82
2022-12-23T11:14:38.542Z,5.70
2022-12-23T11:17:14.403Z,3.95
2022-12-23T11:19:41.133Z,6.40
2022-12-23T11:22:21.762Z,3.93
2022-12-23T11:24:48.421Z,3.33
2022-12-23T11:27:15.602Z,4.93
2022-12-23T11:29:48.461Z,3.67
2022-12-23T11:32:18.605Z,4.15
2022-12-23T11:34:47.260Z,4.27
2022-12-23T11:37:27.210Z,6.70
2022-12-23T11:39:53.937Z,4.30
2022-12-23T11:42:27.100Z,3.40
2022-12-23T11:44:58.620Z,5.05
2022-12-23T11:47:27.886Z,3.33
2022-12-23T11:49:55.823Z,4.28
2022-12-23T11:52:24.198Z,4.20
2022-12-23T11:54:54.543Z,6.07
2022-12-23T11:57:24.664Z,3.45
2022-12-23T11:59:59.939Z,3.60
2022-12-23T12:02:34.429Z,4.00
2022-12-23T12:05:04.873Z,5.20
2022-12-23T12:07:33.208Z,3.63
2022-12-23T12:10:01.457Z,4.03
2022-12-23T12:12:29.508Z,4.73
2022-12-23T12:14:58.747Z,4.78
2022-12-23T12:17:32.509Z,5.57
2022-12-23T12:20:03.513Z,3.05
2022-12-23T12:22:36.163Z,6.00
2022-12-23T12:25:17.444Z,4.87
2022-12-23T12:27:50.173Z,5.07
2022-12-23T12:30:20.139Z,4.72
2022-12-23T12:32:54.979Z,3.22
2022-12-23T12:35:27.005Z,6.03
2022-12-23T12:37:59.403Z,3.50
2022-12-23T12:40:32.337Z,3.63
2022-12-23T12:43:05.284Z,2.50
2022-12-23T12:45:40.336Z,2.85
2022-12-23T12:48:23.754Z,3.30
2022-12-23T12:50:57.947Z,3.30
2022-12-23T12:53:24.950Z,3.70
2022-12-23T12:55:56.936Z,1.85
2022-12-23T12:58:24.311Z,3.38
2022-12-23T13:01:06.795Z,3.28
2022-12-23T13:03:56.159Z,6.43
2022-12-23T13:06:31.154Z,3.78
2022-12-23T13:09:08.987Z,2.55
2022-12-23T13:11:40.753Z,2.70
2022-12-23T13:14:19.103Z,2.88
2022-12-23T13:16:56.192Z,1.80
2022-12-23T13:19:28.966Z,4.13
2022-12-23T13:22:02.164Z,2.60
2022-12-23T13:24:35.409Z,2.40
2022-12-23T13:27:07.474Z,2.67
2022-12-23T13:29:44.871Z,2.47
2022-12-23T13:32:31.905Z,4.65
2022-12-23T13:35:04.220Z,2.70
2022-12-23T13:37:41.259Z,3.13
2022-12-23T13:40:22.439Z,2.95
2022-12-23T13:42:54.533Z,2.70
2022-12-23T13:45:24.769Z,2.97
2022-12-23T13:48:07.289Z,2.65
2022-12-23T13:50:38.640Z,1.73
2022-12-23T13:53:21.957Z,1.88
2022-12-23T13:55:59.152Z,3.47
2022-12-23T13:58:28.411Z,2.83
2022-12-23T14:01:18.753Z,2.13
2022-12-23T14:03:48.707Z,1.20
2022-12-23T14:06:21.531Z,1.95
2022-12-23T14:08:48.571Z,2.50
2022-12-23T14:11:18.986Z,4.00
2022-12-23T14:13:55.144Z,2.55
2022-12-23T14:16:48.743Z,1.90
2022-12-23T14:19:50.693Z,1.48
2022-12-23T14:22:32.910Z,2.17
2022-12-23T14:25:33.061Z,2.97
2022-12-23T14:28:07.700Z,1.48
2022-12-23T14:30:36.218Z,0.90
2022-12-23T14:33:04.398Z,2.25
2022-12-23T14:35:57.279Z,0.70
2022-12-23T14:38:29.922Z,0.60
2022-12-23T14:41:22.704Z,1.85
2022-12-23T14:43:55.212Z,0.90
2022-12-23T14:46:55.301Z,1.45
2022-12-23T14:49:40.402Z,1.30
2022-12-23T14:52:45.760Z,1.42
2022-12-23T14:55:47.044Z,0.60
2022-12-23T14:58:34.439Z,0.80
2022-12-23T15:01:03.810Z,1.00
2022-12-23T15:03:34.576Z,1.10
2022-12-23T15:06:05.701Z,1.13
2022-12-23T15:08:37.479Z,1.20
2022-12-23T15:11:05.372Z,1.63
2022-12-23T15:13:32.971Z,1.50
2022-12-23T15:16:01.954Z,1.67
2022-12-23T15:18:29.297Z,3.88
2022-12-23T15:21:01.535Z,1.95
2022-12-23T15:23:28.035Z,2.50
2022-12-23T15:25:57.884Z,2.38
2022-12-23T15:28:34.937Z,3.03
2022-12-23T15:31:04.472Z,2.00
2022-12-23T15:36:26.303Z,3.20
2022-12-23T15:38:52.990Z,2.10
2022-12-23T15:41:20.802Z,2.50
2022-12-23T15:43:47.366Z,2.83
2022-12-23T15:46:17.257Z,2.45
2022-12-23T15:48:47.227Z,3.35
2022-12-23T15:51:36.634Z,2.78
2022-12-23T15:54:07.057Z,2.10
2022-12-23T15:56:38.782Z,3.70
2022-12-23T15:59:06.283Z,3.05
2022-12-23T16:01:39.064Z,2.15
2022-12-23T16:07:24.554Z,4.00
2022-12-23T16:09:54.351Z,2.42
2022-12-23T16:12:24.086Z,4.22
2022-12-23T16:14:53.829Z,3.17
2022-12-23T16:17:24.678Z,2.50
2022-12-23T16:19:52.953Z,2.93
2022-12-23T16:22:26.084Z,2.35
2022-12-23T16:24:58.982Z,1.77
2022-12-23T16:27:34.412Z,2.28
2022-12-23T16:30:04.347Z,2.88
2022-12-23T16:32:31.052Z,1.97
2022-12-23T16:35:09.854Z,3.15
2022-12-23T16:37:36.315Z,2.00
2022-12-23T16:40:12.780Z,2.50
2022-12-23T16:42:43.600Z,3.85
2022-12-23T16:45:12.941Z,1.77
2022-12-23T16:47:41.443Z,3.17
2022-12-23T16:50:14.341Z,2.33
2022-12-23T16:52:40.867Z,2.13
2022-12-23T16:55:15.933Z,2.40
2022-12-23T16:57:44.559Z,1.73
2022-12-23T17:00:14.610Z,2.25
2022-12-23T17:02:41.497Z,2.13
2022-12-23T17:05:14.345Z,2.60
2022-12-23T17:07:45.263Z,1.85
2022-12-23T17:10:13.970Z,1.60
2022-12-23T17:12:41.517Z,2.40
2022-12-23T17:15:16.340Z,1.55
2022-12-23T17:17:42.926Z,1.90
2022-12-23T17:20:09.984Z,2.45
2022-12-23T17:22:37.408Z,5.47
2022-12-23T17:25:05.897Z,2.67
2022-12-23T17:27:32.385Z,1.67
2022-12-23T17:29:58.911Z,2.10
2022-12-23T17:32:27.331Z,8.82
2022-12-23T17:34:56.340Z,7.27
2022-12-23T17:37:23.151Z,8.80
2022-12-23T17:39:51.711Z,5.78
2022-12-23T17:42:25.545Z,6.55
2022-12-23T17:44:52.747Z,4.43
2022-12-23T17:47:21.312Z,4.53
2022-12-23T17:49:49.702Z,5.35
2022-12-23T17:52:18.432Z,5.43
2022-12-23T17:54:46.296Z,2.63
2022-12-23T17:57:20.122Z,5.53
2022-12-23T17:59:48.032Z,5.60
2022-12-23T18:02:55.218Z,5.07
2022-12-23T18:05:25.746Z,14.52
2022-12-23T18:07:53.753Z,5.32
2022-12-23T18:10:23.461Z,8.48
2022-12-23T18:12:53.351Z,6.73
2022-12-23T18:15:24.425Z,7.07
2022-12-23T18:17:52.282Z,7.20
2022-12-23T18:20:21.292Z,13.15
2022-12-23T18:22:51.558Z,6.95
2022-12-23T18:25:21.402Z,10.13
2022-12-23T18:27:48.581Z,8.02
2022-12-23T18:30:15.375Z,6.93
2022-12-23T18:32:42.700Z,5.43
2022-12-23T18:35:26.814Z,8.13
2022-12-23T18:37:55.532Z,9.67
2022-12-23T18:40:25.703Z,5.03
2022-12-23T18:42:56.550Z,9.65
2022-12-23T18:45:33.109Z,18.63
2022-12-23T18:48:04.269Z,14.73
2022-12-23T18:50:31.867Z,8.60
2022-12-23T18:52:59.937Z,9.45
2022-12-23T18:55:27.334Z,10.73
2022-12-23T18:57:54.254Z,6.75
2022-12-23T19:00:23.430Z,11.63
2022-12-23T19:02:51.435Z,14.57
2022-12-23T19:05:20.563Z,11.85
2022-12-23T19:07:48.079Z,13.13
2022-12-23T19:10:18.663Z,16.52
2022-12-23T19:12:45.391Z,15.45
2022-12-23T19:15:15.659Z,11.83
2022-12-23T19:17:42.213Z,13.73
2022-12-23T19:20:11.361Z,11.32
2022-12-23T19:22:38.334Z,12.52
2022-12-23T19:25:06.881Z,14.45
2022-12-23T19:27:34.915Z,17.13
2022-12-23T19:30:01.689Z,13.32
2022-12-23T19:32:28.207Z,18.48
2022-12-23T19:34:54.664Z,15.80
2022-12-23T19:37:21.166Z,13.38
2022-12-23T19:39:47.736Z,16.17
2022-12-23T19:42:14.306Z,22.08
2022-12-23T19:44:42.239Z,19.25
2022-12-23T19:47:08.820Z,15.73
2022-12-23T19:49:35.385Z,16.65
2022-12-23T19:52:02.589Z,18.17
2022-12-23T19:54:29.152Z,16.45
2022-12-23T19:56:55.867Z,15.85
2022-12-23T19:59:22.404Z,14.30
2022-12-23T20:01:50.386Z,9.68
2022-12-23T20:04:17.433Z,13.07
2022-12-23T20:06:44.409Z,19.00
2022-12-23T20:09:12.878Z,17.15
2022-12-23T20:11:40.804Z,20.08
2022-12-23T20:14:08.192Z,13.90
2022-12-23T20:16:35.699Z,19.43
2022-12-23T20:19:04.325Z,12.82
2022-12-23T20:21:31.016Z,27.30
2022-12-23T20:23:57.858Z,19.33
2022-12-23T20:26:24.335Z,15.70
2022-12-23T20:28:51.522Z,15.10
2022-12-23T20:31:20.325Z,17.02
2022-12-23T20:33:47.485Z,16.95
2022-12-23T20:36:18.034Z,14.25
2022-12-23T20:38:46.535Z,13.57
2022-12-23T20:41:15.637Z,12.83
2022-12-23T20:43:46.060Z,12.95
2022-12-23T20:46:19.531Z,19.35
2022-12-23T20:48:46.832Z,16.00
2022-12-23T20:51:16.686Z,17.38
2022-12-23T20:53:43.668Z,15.83
2022-12-23T20:56:12.618Z,16.73
2022-12-23T20:58:39.269Z,19.25
2022-12-23T21:01:09.478Z,20.70
2022-12-23T21:03:36.041Z,21.67
2022-12-23T21:06:02.759Z,14.57
2022-12-23T21:08:30.589Z,10.93
2022-12-23T21:10:57.523Z,16.42
2022-12-23T21:13:24.184Z,12.77
2022-12-23T21:15:50.959Z,18.42
2022-12-23T21:18:17.525Z,19.97
2022-12-23T21:20:44.079Z,18.65
2022-12-23T21:23:10.521Z,16.50
2022-12-23T21:25:38.420Z,18.98
2022-12-23T21:28:04.928Z,14.02
2022-12-23T21:30:31.518Z,17.30
2022-12-23T21:32:58.085Z,15.73
2022-12-23T21:35:24.607Z,17.27
2022-12-23T21:37:51.087Z,14.60
2022-12-23T21:40:17.731Z,15.32
2022-12-23T21:42:45.607Z,11.30
2022-12-23T21:45:12.099Z,16.83
2022-12-23T21:47:38.648Z,17.92
2022-12-23T21:50:06.405Z,14.13
2022-12-23T21:52:32.876Z,17.30
2022-12-23T21:54:59.785Z,13.20
2022-12-23T21:57:26.523Z,14.95
2022-12-23T21:59:54.553Z,16.77
2022-12-23T22:02:21.447Z,18.05
2022-12-23T22:04:48.028Z,16.25
2022-12-23T22:07:14.579Z,15.33
2022-12-23T22:09:41.145Z,20.42
2022-12-23T22:12:08.099Z,14.68
2022-12-23T22:14:34.943Z,14.07
2022-12-23T22:17:02.949Z,16.90
2022-12-23T22:19:29.685Z,8.27
2022-12-23T22:21:56.324Z,13.25
2022-12-23T22:24:22.801Z,12.85
2022-12-23T22:26:49.323Z,16.75
2022-12-23T22:29:18.384Z,18.25
2022-12-23T22:31:47.979Z,14.10
2022-12-23T22:34:18.235Z,13.00
2022-12-23T22:36:54.491Z,15.73
2022-12-23T22:39:24.217Z,9.30
2022-12-23T22:41:53.127Z,18.85
2022-12-23T22:44:20.307Z,13.70
2022-12-23T22:46:47.605Z,14.68
2022-12-23T22:49:17.762Z,16.33
2022-12-23T22:51:45.219Z,16.38
2022-12-23T22:54:11.847Z,14.82
2022-12-23T22:56:40.515Z,15.87
2022-12-23T22:59:07.215Z,15.98
2022-12-23T23:01:35.523Z,18.40
2022-12-23T23:04:03.968Z,11.63
2022-12-23T23:06:34.320Z,13.40
2022-12-23T23:09:01.720Z,28.40
2022-12-23T23:11:29.473Z,17.33
2022-12-23T23:13:56.934Z,15.73
2022-12-23T23:16:25.921Z,13.55
2022-12-23T23:18:54.203Z,12.90
2022-12-23T23:21:21.410Z,18.60
2022-12-23T23:23:50.131Z,16.55
2022-12-23T23:26:17.866Z,13.30
2022-12-23T23:28:52.036Z,18.60
2022-12-23T23:34:07.004Z,10.47
2022-12-23T23:36:33.949Z,14.57
2022-12-23T23:39:02.353Z,18.98
2022-12-23T23:45:20.267Z,18.48
2022-12-23T23:47:47.344Z,17.50
2022-12-23T23:50:14.195Z,19.23
2022-12-23T23:52:42.751Z,16.95
2022-12-23T23:55:11.457Z,13.82
2022-12-23T23:57:38.392Z,14.00
